createdAt,value
2019-05-13T00:00:25.941Z,7.90
2019-05-13T00:03:03.680Z,6.13
2019-05-13T00:05:40.774Z,5.23
2019-05-13T00:08:16.928Z,2.10
2019-05-13T00:10:54.300Z,4.47
2019-05-13T00:13:30.657Z,4.43
2019-05-13T00:16:06.545Z,2.43
2019-05-13T00:18:44.393Z,7.23
2019-05-13T00:21:23.184Z,4.77
2019-05-13T00:23:59.319Z,5.80
2019-05-13T00:26:35.089Z,7.13
2019-05-13T00:29:11.463Z,5.03
2019-05-13T00:31:47.372Z,6.43
2019-05-13T00:34:24.384Z,5.70
2019-05-13T00:37:08.691Z,4.33
2019-05-13T00:39:39.930Z,5.63
2019-05-13T00:42:16.566Z,3.83
2019-05-13T00:44:53.200Z,5.93
2019-05-13T00:47:29.852Z,3.30
2019-05-13T00:50:06.629Z,3.57
2019-05-13T00:52:44.897Z,2.90
2019-05-13T00:55:23.815Z,4.63
2019-05-13T00:58:00.044Z,6.30
2019-05-13T01:00:36.358Z,3.17
2019-05-13T01:03:14.158Z,4.13
2019-05-13T01:05:50.476Z,4.53
2019-05-13T01:08:27.445Z,3.27
2019-05-13T01:11:04.498Z,4.20
2019-05-13T01:13:43.335Z,2.13
2019-05-13T01:16:19.708Z,4.37
2019-05-13T01:18:55.357Z,3.00
2019-05-13T01:21:34.415Z,2.90
2019-05-13T01:24:10.458Z,7.20
2019-05-13T01:26:46.105Z,4.30
2019-05-13T01:29:23.826Z,4.60
2019-05-13T01:32:00.211Z,3.30
2019-05-13T01:34:36.837Z,2.10
2019-05-13T01:37:13.332Z,3.57
2019-05-13T01:39:49.777Z,5.90
2019-05-13T01:42:25.818Z,3.37
2019-05-13T01:45:04.510Z,2.77
2019-05-13T01:47:40.599Z,2.17
2019-05-13T01:50:16.837Z,3.43
2019-05-13T01:52:54.188Z,3.43
2019-05-13T01:55:30.357Z,2.47
2019-05-13T01:58:06.099Z,3.40
2019-05-13T02:00:44.005Z,2.70
2019-05-13T02:03:20.589Z,5.90
2019-05-13T02:05:57.185Z,4.47
2019-05-13T02:08:33.871Z,4.53
2019-05-13T02:11:13.158Z,2.83
2019-05-13T02:13:49.314Z,1.27
2019-05-13T02:16:25.885Z,3.30
2019-05-13T02:19:03.854Z,3.60
2019-05-13T02:21:40.267Z,4.57
2019-05-13T02:24:16.802Z,3.30
2019-05-13T02:26:54.347Z,2.83
2019-05-13T02:29:30.489Z,4.70
2019-05-13T02:32:06.677Z,2.20
2019-05-13T02:34:43.941Z,5.37
2019-05-13T02:37:23.203Z,3.50
2019-05-13T02:40:03.197Z,3.07
2019-05-13T02:42:37.298Z,1.47
2019-05-13T02:45:14.766Z,3.77
2019-05-13T02:47:52.167Z,4.40
2019-05-13T02:50:28.439Z,4.03
2019-05-13T02:53:04.551Z,4.23
2019-05-13T02:55:43.719Z,5.13
2019-05-13T02:58:23.644Z,5.40
2019-05-13T03:00:57.645Z,8.93
2019-05-13T03:03:34.899Z,3.70
2019-05-13T03:06:13.232Z,2.70
2019-05-13T03:08:53.230Z,4.20
2019-05-13T03:11:27.960Z,3.77
2019-05-13T03:14:04.865Z,2.03
2019-05-13T03:16:52.503Z,1.97
2019-05-13T03:19:28.530Z,4.07
2019-05-13T03:22:04.638Z,2.33
2019-05-13T03:24:43.007Z,5.77
2019-05-13T03:27:20.665Z,5.73
2019-05-13T03:29:56.906Z,2.87
2019-05-13T03:32:42.146Z,4.67
2019-05-13T03:35:16.477Z,2.77
2019-05-13T03:37:52.714Z,4.93
2019-05-13T03:40:29.202Z,3.40
2019-05-13T03:43:07.080Z,5.47
2019-05-13T03:45:43.564Z,5.77
2019-05-13T03:48:23.859Z,3.87
2019-05-13T03:51:02.714Z,3.90
2019-05-13T03:53:42.951Z,2.90
2019-05-13T03:56:17.429Z,4.40
2019-05-13T03:58:53.807Z,3.77
2019-05-13T04:01:32.598Z,3.03
2019-05-13T04:04:12.361Z,5.00
2019-05-13T04:06:46.638Z,3.67
2019-05-13T04:09:31.301Z,4.20
2019-05-13T04:12:03.153Z,4.20
2019-05-13T04:14:42.358Z,2.63
2019-05-13T04:17:19.261Z,3.90
2019-05-13T04:19:55.242Z,6.73
2019-05-13T04:22:33.233Z,3.93
2019-05-13T04:25:12.458Z,3.73
2019-05-13T04:27:47.347Z,6.17
2019-05-13T04:30:23.997Z,4.03
2019-05-13T04:33:02.427Z,3.97
2019-05-13T04:35:38.493Z,3.33
2019-05-13T04:38:14.918Z,4.90
2019-05-13T04:40:52.821Z,4.03
2019-05-13T04:43:31.627Z,3.53
2019-05-13T04:46:07.104Z,5.87
2019-05-13T04:48:44.396Z,6.23
2019-05-13T04:51:22.834Z,6.00
2019-05-13T04:54:02.536Z,5.83
2019-05-13T04:56:38.277Z,6.53
2019-05-13T04:59:15.194Z,6.53
2019-05-13T05:02:37.396Z,4.70
2019-05-13T05:05:12.773Z,6.80
2019-05-13T05:08:35.109Z,14.13
2019-05-13T05:12:02.124Z,6.60
2019-05-13T05:15:18.878Z,7.67
2019-05-13T05:18:06.994Z,15.07
2019-05-13T05:21:13.716Z,13.23
2019-05-13T05:24:15.533Z,30.23
2019-05-13T05:27:45.293Z,20.40
2019-05-13T05:30:58.682Z,16.53
2019-05-13T05:34:08.257Z,15.17
2019-05-13T05:37:31.123Z,12.87
2019-05-13T05:40:07.073Z,10.90
2019-05-13T05:42:46.727Z,8.73
2019-05-13T05:45:22.973Z,7.47
2019-05-13T05:48:02.141Z,7.60
2019-05-13T05:50:42.427Z,4.03
2019-05-13T05:53:22.727Z,5.07
2019-05-13T05:56:02.366Z,6.73
2019-05-13T05:58:41.943Z,11.90
2019-05-13T06:01:23.248Z,11.47
2019-05-13T06:04:01.569Z,9.80
2019-05-13T06:06:41.375Z,10.90
2019-05-13T06:09:16.139Z,14.87
2019-05-13T06:11:52.393Z,7.57
2019-05-13T06:14:28.658Z,9.90
2019-05-13T06:17:05.421Z,10.40
2019-05-13T06:19:42.004Z,10.13
2019-05-13T06:22:18.033Z,8.10
2019-05-13T06:24:54.189Z,7.37
2019-05-13T06:27:31.757Z,10.93
2019-05-13T06:30:08.645Z,7.07
2019-05-13T06:32:45.010Z,6.13
2019-05-13T06:35:22.095Z,5.10
2019-05-13T06:38:01.262Z,8.67
2019-05-13T06:40:36.213Z,6.67
2019-05-13T06:43:12.613Z,8.40
2019-05-13T06:45:48.354Z,7.33
2019-05-13T06:48:25.237Z,8.33
2019-05-13T06:51:02.563Z,7.17
2019-05-13T06:53:41.256Z,9.80
2019-05-13T06:56:16.853Z,8.03
2019-05-13T06:58:52.866Z,12.57
2019-05-13T07:01:32.098Z,3.90
2019-05-13T07:04:07.513Z,4.77
2019-05-13T07:06:44.182Z,3.93
2019-05-13T07:09:21.580Z,6.27
2019-05-13T07:11:57.993Z,5.00
2019-05-13T07:14:34.233Z,4.03
2019-05-13T07:17:12.319Z,4.40
2019-05-13T07:19:48.138Z,5.83
2019-05-13T07:22:24.776Z,5.40
2019-05-13T07:25:02.581Z,4.73
2019-05-13T07:27:38.815Z,2.57
2019-05-13T07:30:16.856Z,3.77
2019-05-13T07:32:52.873Z,6.13
2019-05-13T07:35:32.258Z,5.73
2019-05-13T07:38:08.439Z,4.00
2019-05-13T07:40:44.661Z,5.80
2019-05-13T07:43:21.473Z,5.97
2019-05-13T07:45:59.120Z,5.73
2019-05-13T07:48:35.201Z,3.20
2019-05-13T07:51:12.181Z,3.03
2019-05-13T07:53:51.591Z,6.23
2019-05-13T07:56:28.275Z,3.73
2019-05-13T07:59:04.508Z,4.30
2019-05-13T08:01:41.713Z,6.60
2019-05-13T08:04:22.701Z,3.37
2019-05-13T08:06:56.537Z,3.13
2019-05-13T08:09:33.297Z,6.43
2019-05-13T08:12:13.461Z,5.83
2019-05-13T08:14:47.113Z,4.73
2019-05-13T08:17:24.017Z,7.97
2019-05-13T08:20:02.625Z,5.70
2019-05-13T08:22:37.536Z,8.10
2019-05-13T08:25:14.129Z,4.87
2019-05-13T08:27:51.463Z,6.27
2019-05-13T08:30:28.337Z,5.37
2019-05-13T08:33:04.698Z,4.17
2019-05-13T08:35:41.957Z,4.27
2019-05-13T08:38:22.095Z,7.03
2019-05-13T08:40:57.877Z,3.60
2019-05-13T08:43:33.773Z,2.27
2019-05-13T08:46:12.330Z,4.87
2019-05-13T08:48:48.521Z,5.40
2019-05-13T08:51:25.061Z,4.80
2019-05-13T08:54:02.606Z,4.33
2019-05-13T08:56:41.439Z,4.47
2019-05-13T08:59:16.675Z,1.90
2019-05-13T09:01:52.790Z,6.05
2019-05-13T09:04:28.585Z,3.63
2019-05-13T09:07:05.573Z,4.00
2019-05-13T09:09:42.756Z,2.87
2019-05-13T09:12:31.861Z,3.33
2019-05-13T09:14:57.476Z,5.20
2019-05-13T09:17:34.038Z,3.37
2019-05-13T09:20:11.453Z,2.40
2019-05-13T09:22:48.115Z,4.77
2019-05-13T09:25:24.324Z,3.60
2019-05-13T09:28:02.572Z,2.85
2019-05-13T09:30:38.943Z,4.73
2019-05-13T09:33:14.727Z,3.57
2019-05-13T09:35:53.482Z,2.75
2019-05-13T09:38:32.373Z,3.10
2019-05-13T09:41:08.127Z,1.80
2019-05-13T09:43:44.697Z,3.00
2019-05-13T09:46:22.516Z,3.40
2019-05-13T09:49:12.838Z,2.57
2019-05-13T09:51:37.540Z,3.27
2019-05-13T09:54:14.206Z,1.98
2019-05-13T09:56:51.829Z,4.05
2019-05-13T09:59:27.810Z,1.22
2019-05-13T10:02:04.529Z,2.77
2019-05-13T10:04:43.403Z,3.20
2019-05-13T10:07:18.920Z,3.03
2019-05-13T10:09:55.329Z,2.00
2019-05-13T10:12:32.784Z,2.65
2019-05-13T10:15:09.597Z,4.27
2019-05-13T10:17:45.825Z,2.83
2019-05-13T10:20:42.074Z,3.37
2019-05-13T10:23:18.444Z,2.53
2019-05-13T10:25:57.755Z,2.20
2019-05-13T10:28:34.524Z,2.20
2019-05-13T10:31:12.089Z,1.90
2019-05-13T10:33:48.272Z,2.60
2019-05-13T10:36:24.944Z,2.77
2019-05-13T10:39:01.513Z,1.90
2019-05-13T10:41:38.213Z,2.60
2019-05-13T10:44:15.091Z,1.50
2019-05-13T10:46:52.277Z,3.08
2019-05-13T10:49:33.088Z,5.17
2019-05-13T10:52:08.268Z,2.20
2019-05-13T10:54:45.240Z,1.47
2019-05-13T10:57:21.701Z,3.17
2019-05-13T11:00:02.433Z,2.27
2019-05-13T11:02:37.136Z,3.27
2019-05-13T11:05:13.197Z,1.65
2019-05-13T11:07:51.684Z,5.07
2019-05-13T11:10:32.798Z,2.37
2019-05-13T11:13:10.653Z,3.80
2019-05-13T11:15:47.539Z,1.57
2019-05-13T11:18:24.672Z,3.00
2019-05-13T11:21:02.391Z,3.47
2019-05-13T11:23:38.938Z,1.93
2019-05-13T11:26:14.985Z,1.57
2019-05-13T11:28:52.158Z,2.20
2019-05-13T11:31:32.550Z,2.00
2019-05-13T11:34:06.478Z,3.02
2019-05-13T11:36:43.579Z,2.70
2019-05-13T11:39:21.748Z,2.50
2019-05-13T11:41:57.904Z,1.95
2019-05-13T11:44:34.294Z,3.77
2019-05-13T11:47:12.708Z,3.30
2019-05-13T11:49:51.404Z,1.60
2019-05-13T11:52:27.378Z,2.55
2019-05-13T11:55:03.967Z,4.35
2019-05-13T11:57:39.864Z,1.62
2019-05-13T12:00:17.397Z,2.57
2019-05-13T12:02:54.693Z,1.55
2019-05-13T12:05:32.666Z,2.90
2019-05-13T12:08:12.537Z,1.10
2019-05-13T12:10:47.889Z,1.67
2019-05-13T12:13:24.169Z,1.57
2019-05-13T12:16:03.564Z,3.07
2019-05-13T12:18:43.718Z,2.87
2019-05-13T12:21:18.156Z,1.85
2019-05-13T12:23:55.865Z,2.63
2019-05-13T12:26:33.281Z,2.45
2019-05-13T12:29:18.330Z,1.60
2019-05-13T12:31:48.548Z,1.93
2019-05-13T12:34:24.549Z,1.63
2019-05-13T12:37:03.069Z,1.62
2019-05-13T12:39:39.024Z,1.53
2019-05-13T12:42:15.692Z,1.90
2019-05-13T12:45:08.199Z,2.17
2019-05-13T12:47:30.368Z,3.02
2019-05-13T12:50:07.640Z,1.98
2019-05-13T12:52:44.095Z,0.88
2019-05-13T12:55:21.743Z,2.17
2019-05-13T12:58:02.465Z,1.80
2019-05-13T13:00:36.649Z,1.30
2019-05-13T13:03:13.472Z,3.92
2019-05-13T13:05:50.440Z,1.45
2019-05-13T13:08:40.005Z,1.70
2019-05-13T13:11:05.607Z,1.57
2019-05-13T13:13:58.238Z,1.35
2019-05-13T13:16:20.739Z,2.20
2019-05-13T13:18:57.431Z,1.95
2019-05-13T13:21:37.516Z,1.75
2019-05-13T13:24:12.286Z,1.43
2019-05-13T13:26:48.889Z,1.95
2019-05-13T13:29:24.656Z,1.42
2019-05-13T13:32:02.910Z,1.92
2019-05-13T13:34:38.894Z,2.15
2019-05-13T13:37:16.044Z,2.45
2019-05-13T13:39:55.148Z,2.10
2019-05-13T13:42:33.044Z,1.65
2019-05-13T13:45:09.793Z,0.82
2019-05-13T13:47:46.337Z,1.13
2019-05-13T13:50:24.609Z,1.57
2019-05-13T13:53:01.524Z,1.30
2019-05-13T13:55:37.840Z,3.73
2019-05-13T13:58:14.528Z,2.20
2019-05-13T14:01:05.966Z,3.35
2019-05-13T14:03:28.538Z,3.67
2019-05-13T14:06:06.451Z,1.37
2019-05-13T14:08:43.239Z,2.20
2019-05-13T14:11:22.774Z,3.75
2019-05-13T14:13:57.381Z,4.22
2019-05-13T14:16:35.377Z,2.92
2019-05-13T14:19:11.738Z,4.12
2019-05-13T14:21:47.506Z,4.67
2019-05-13T14:24:23.672Z,4.00
2019-05-13T14:27:02.702Z,8.27
2019-05-13T14:29:41.205Z,2.47
2019-05-13T14:32:14.788Z,3.67
2019-05-13T14:34:52.571Z,8.60
2019-05-13T14:37:31.821Z,6.60
2019-05-13T14:40:12.189Z,5.45
2019-05-13T14:42:47.943Z,2.65
2019-05-13T14:45:24.548Z,6.30
2019-05-13T14:48:01.783Z,3.60
2019-05-13T14:50:38.065Z,2.15
2019-05-13T14:53:14.477Z,5.07
2019-05-13T14:55:51.831Z,2.65
2019-05-13T14:58:27.920Z,5.50
2019-05-13T15:01:17.924Z,2.75
2019-05-13T15:03:41.670Z,2.80
2019-05-13T15:06:18.065Z,2.33
2019-05-13T15:08:54.827Z,2.47
2019-05-13T15:11:32.360Z,1.80
2019-05-13T15:14:11.496Z,2.90
2019-05-13T15:17:00.866Z,2.37
2019-05-13T15:19:25.886Z,2.67
2019-05-13T15:22:02.648Z,3.53
2019-05-13T15:24:41.113Z,6.00
2019-05-13T15:27:17.144Z,3.47
2019-05-13T15:29:53.605Z,5.57
2019-05-13T15:32:32.484Z,6.90
2019-05-13T15:35:12.536Z,5.90
2019-05-13T15:37:48.460Z,5.27
2019-05-13T15:40:25.226Z,12.37
2019-05-13T15:43:03.201Z,5.33
2019-05-13T15:45:42.242Z,8.53
2019-05-13T15:48:18.345Z,8.10
2019-05-13T15:50:55.184Z,9.67
2019-05-13T15:53:32.090Z,7.93
2019-05-13T15:56:08.574Z,9.57
2019-05-13T15:58:44.763Z,3.97
2019-05-13T16:01:23.011Z,10.93
2019-05-13T16:04:02.411Z,7.47
2019-05-13T16:06:38.611Z,8.20
2019-05-13T16:09:16.093Z,4.93
2019-05-13T16:11:52.326Z,6.03
2019-05-13T16:14:31.293Z,6.47
2019-05-13T16:17:07.029Z,7.60
2019-05-13T16:19:43.150Z,7.50
2019-05-13T16:22:22.897Z,6.37
2019-05-13T16:25:01.545Z,5.97
2019-05-13T16:27:38.395Z,3.40
2019-05-13T16:30:15.305Z,3.80
2019-05-13T16:32:52.144Z,10.43
2019-05-13T16:35:28.901Z,3.17
2019-05-13T16:38:06.974Z,6.33
2019-05-13T16:40:43.646Z,5.17
2019-05-13T16:43:20.908Z,6.40
2019-05-13T16:45:57.861Z,3.13
2019-05-13T16:48:34.329Z,4.10
2019-05-13T16:51:12.413Z,3.13
2019-05-13T16:53:49.307Z,9.83
2019-05-13T16:56:29.783Z,18.40
2019-05-13T16:59:02.747Z,11.53
2019-05-13T17:01:39.137Z,10.63
2019-05-13T17:04:14.977Z,12.57
2019-05-13T17:06:53.080Z,14.60
2019-05-13T17:09:28.650Z,17.17
2019-05-13T17:12:05.860Z,10.03
2019-05-13T17:14:42.649Z,14.27
2019-05-13T17:17:19.688Z,11.60
2019-05-13T17:19:55.768Z,10.73
2019-05-13T17:22:32.348Z,10.10
2019-05-13T17:25:08.613Z,9.33
2019-05-13T17:27:45.825Z,6.80
2019-05-13T17:30:23.399Z,10.27
2019-05-13T17:32:59.177Z,11.23
2019-05-13T17:35:35.323Z,8.43
2019-05-13T17:38:11.783Z,10.83
2019-05-13T17:40:50.102Z,10.20
2019-05-13T17:43:26.053Z,10.93
2019-05-13T17:46:02.630Z,4.03
2019-05-13T17:48:41.569Z,6.27
2019-05-13T17:51:17.465Z,10.30
2019-05-13T17:53:55.205Z,10.13
2019-05-13T17:56:32.321Z,6.27
2019-05-13T17:59:11.180Z,6.30
2019-05-13T18:01:47.065Z,6.53
2019-05-13T18:04:23.624Z,4.87
2019-05-13T18:07:01.705Z,7.47
2019-05-13T18:09:38.408Z,8.73
2019-05-13T18:12:14.270Z,4.93
2019-05-13T18:14:51.689Z,8.00
2019-05-13T18:17:31.052Z,6.07
2019-05-13T18:20:06.804Z,3.20
2019-05-13T18:22:43.262Z,4.20
2019-05-13T18:25:22.334Z,3.27
2019-05-13T18:27:58.704Z,6.07
2019-05-13T18:30:35.842Z,7.50
2019-05-13T18:33:11.900Z,6.10
2019-05-13T18:35:48.031Z,3.27
2019-05-13T18:38:24.497Z,6.10
2019-05-13T18:41:01.962Z,4.70
2019-05-13T18:43:41.182Z,2.90
2019-05-13T18:46:16.625Z,5.87
2019-05-13T18:48:59.181Z,4.20
2019-05-13T18:51:31.683Z,3.77
2019-05-13T18:54:08.370Z,5.63
2019-05-13T18:56:46.530Z,3.17
2019-05-13T18:59:22.134Z,4.03
2019-05-13T19:01:58.501Z,3.43
2019-05-13T19:04:34.493Z,3.47
2019-05-13T19:07:10.658Z,5.37
2019-05-13T19:09:46.749Z,9.20
2019-05-13T19:12:25.698Z,5.57
2019-05-13T19:15:02.415Z,5.57
2019-05-13T19:17:41.359Z,4.47
2019-05-13T19:20:17.191Z,6.00
2019-05-13T19:22:54.469Z,5.03
2019-05-13T19:25:31.429Z,4.73
2019-05-13T19:28:08.549Z,5.53
2019-05-13T19:30:44.838Z,6.57
2019-05-13T19:33:22.220Z,4.83
2019-05-13T19:36:01.146Z,2.47
2019-05-13T19:38:37.581Z,5.27
2019-05-13T19:41:13.961Z,9.10
2019-05-13T19:43:51.369Z,8.50
2019-05-13T19:46:28.070Z,5.23
2019-05-13T19:49:04.117Z,7.43
2019-05-13T19:51:41.735Z,4.83
2019-05-13T19:54:17.882Z,4.73
2019-05-13T19:56:54.405Z,4.37
2019-05-13T19:59:32.268Z,3.10
2019-05-13T20:02:12.214Z,7.17
2019-05-13T20:05:09.982Z,2.63
2019-05-13T20:07:46.171Z,2.77
2019-05-13T20:10:22.058Z,4.33
2019-05-13T20:12:58.302Z,5.50
2019-05-13T20:15:34.849Z,5.43
2019-05-13T20:18:12.124Z,3.20
2019-05-13T20:20:51.734Z,4.67
2019-05-13T20:23:27.518Z,3.63
2019-05-13T20:26:04.079Z,4.20
2019-05-13T20:28:41.977Z,3.87
2019-05-13T20:31:18.230Z,4.03
2019-05-13T20:33:54.156Z,2.23
2019-05-13T20:36:31.901Z,2.93
2019-05-13T20:39:08.274Z,4.57
2019-05-13T20:41:44.340Z,3.90
2019-05-13T20:44:22.122Z,3.03
2019-05-13T20:47:01.350Z,4.77
2019-05-13T20:49:37.384Z,5.53
2019-05-13T20:52:15.523Z,1.63
2019-05-13T20:54:51.730Z,3.40
2019-05-13T20:57:27.749Z,5.87
2019-05-13T21:00:05.915Z,3.30
2019-05-13T21:02:42.662Z,3.93
2019-05-13T21:05:21.724Z,6.47
2019-05-13T21:07:57.423Z,2.13
2019-05-13T21:10:34.381Z,3.73
2019-05-13T21:13:12.200Z,1.73
2019-05-13T21:15:51.688Z,3.63
2019-05-13T21:18:27.445Z,2.87
2019-05-13T21:21:04.301Z,4.97
2019-05-13T21:23:41.744Z,2.53
2019-05-13T21:26:18.282Z,3.37
2019-05-13T21:28:54.194Z,4.40
2019-05-13T21:31:32.590Z,4.70
2019-05-13T21:34:11.865Z,3.93
2019-05-13T21:36:48.027Z,2.13
2019-05-13T21:39:24.819Z,5.97
2019-05-13T21:42:02.418Z,3.00
2019-05-13T21:44:39.356Z,3.40
2019-05-13T21:47:15.784Z,4.67
2019-05-13T21:49:52.108Z,2.87
2019-05-13T21:52:27.980Z,4.20
2019-05-13T21:55:05.978Z,3.47
2019-05-13T21:57:41.724Z,3.73
2019-05-13T22:00:23.502Z,3.37
2019-05-13T22:02:58.872Z,5.27
2019-05-13T22:05:35.885Z,2.47
2019-05-13T22:08:12.266Z,2.27
2019-05-13T22:10:49.386Z,2.33
2019-05-13T22:13:25.343Z,4.43
2019-05-13T22:16:02.415Z,3.23
2019-05-13T22:18:41.708Z,2.83
2019-05-13T22:21:16.490Z,5.33
2019-05-13T22:23:54.705Z,1.87
2019-05-13T22:26:31.442Z,1.80
2019-05-13T22:29:08.246Z,4.03
2019-05-13T22:31:51.170Z,3.87
2019-05-13T22:34:27.441Z,5.90
2019-05-13T22:37:04.186Z,5.13
2019-05-13T22:39:42.109Z,2.00
2019-05-13T22:42:21.428Z,3.40
2019-05-13T22:44:58.634Z,2.90
2019-05-13T22:47:35.098Z,2.57
2019-05-13T22:50:12.436Z,3.97
2019-05-13T22:52:48.937Z,1.43
2019-05-13T22:55:25.365Z,1.87
2019-05-13T22:58:01.641Z,2.87
2019-05-13T23:00:37.935Z,2.10
2019-05-13T23:03:14.913Z,4.20
2019-05-13T23:05:52.239Z,2.77
2019-05-13T23:08:28.961Z,2.80
2019-05-13T23:11:05.930Z,2.83
2019-05-13T23:13:42.755Z,2.70
2019-05-13T23:16:18.615Z,3.03
2019-05-13T23:18:54.394Z,2.03
2019-05-13T23:21:31.350Z,1.63
2019-05-13T23:24:08.325Z,3.47
2019-05-13T23:26:44.230Z,1.97
2019-05-13T23:29:21.442Z,2.47
2019-05-13T23:31:58.411Z,2.63
2019-05-13T23:34:34.781Z,3.10
2019-05-13T23:37:11.411Z,3.20
2019-05-13T23:39:47.461Z,1.73
2019-05-13T23:42:23.295Z,1.63
2019-05-13T23:44:59.288Z,1.33
2019-05-13T23:50:17.547Z,4.30
2019-05-13T23:52:53.564Z,1.30
2019-05-13T23:55:32.122Z,1.93
2019-05-13T23:58:08.522Z,3.00
